Overview Statistics Trail Chart Weather Telemetry Raw packets
 

This is the latest recevied weather packets stored in our database for station/object KB7STN. If no packets are shown the sender has not sent any weather packets the latest 10 day(s).

<< 72 73 74 75 76 77 78 >>
Time Temp. Humidity Pressure Rain* Wind** Luminosity Snow
1788181293 16.11° C 67% 1021.7 hPa 0 mm - - -
1788180993 16.11° C 67% 1021.6 hPa 0 mm - - -
1788180693 16.11° C 66% 1021.6 hPa 0 mm - - -
1788180393 16.11° C 66% 1021.4 hPa 0 mm - - -
1788180093 16.11° C 66% 1021.6 hPa 0 mm - - -
1788179793 16.67° C 65% 1021.6 hPa 0 mm - - -
1788179493 16.67° C 63% 1021.6 hPa 0 mm - - -
1788179193 17.22° C 62% 1021.6 hPa 0 mm - - -
1788178893 17.22° C 61% 1021.6 hPa 0 mm - - -
1788178593 17.78° C 61% 1021.6 hPa 0 mm - - -
1788178293 17.22° C 63% 1021.6 hPa 0 mm - - -
1788177993 16.67° C 65% 1021.6 hPa 0 mm - - -
1788177693 16.11° C 68% 1021.6 hPa 0 mm - - -
1788177393 15° C 72% 1021.6 hPa 0 mm - - -
1788177096 14.44° C 75% 1021.7 hPa 0 mm - - -
1788176793 14.44° C 75% 1021.7 hPa 0 mm - - -
1788176493 14.44° C 76% 1021.8 hPa 0 mm - - -
1788176193 14.44° C 76% 1021.8 hPa 0 mm - - -
1788175893 14.44° C 74% 1021.9 hPa 0 mm - - -
1788175593 14.44° C 75% 1021.9 hPa 0 mm - - -
1788175293 15° C 76% 1021.9 hPa 0 mm - - -
1788174994 15° C 76% 1021.8 hPa 0 mm - - -
1788174693 15° C 75% 1021.9 hPa 0 mm - - -
1788174393 15° C 75% 1021.9 hPa 0 mm - - -
1788174093 15° C 73% 1021.9 hPa 0 mm - - -

* Rain latest hour (hover to see other rain measurements)
** Current wind speed in m/s (hover to see current wind gust speed)